Time;durP1;ratioP1;P1;durP2;ratioP2;P2;SDS_P1;SDS_P2;PMS_P1;PMS_P2;Temp;Humidity;BMP_temperature;BMP_pressure;BME280_temperature;BME280_humidity;BME280_pressure;Samples;Min_cycle;Max_cycle;Signal;HPM_P1;HPM_P2
2021/08/24 00:00:18;;;;;;;3.10;2.90;;;;;;;16.50;83.23;100013.41;2303746;69;20304;-74
2021/08/24 00:03:21;;;;;;;2.80;2.60;;;;;;;16.40;83.41;100010.09;2306216;69;20199;-74
2021/08/24 00:06:24;;;;;;;2.59;2.39;;;;;;;16.29;83.88;100007.66;2304870;69;20141;-74
2021/08/24 00:09:26;;;;;;;6.85;2.71;;;;;;;16.20;84.21;100004.34;2304456;69;20241;-74
2021/08/24 00:12:29;;;;;;;3.16;2.89;;;;;;;16.07;84.55;100010.69;2304714;69;21097;-74
2021/08/24 00:15:33;;;;;;;5.41;3.28;;;;;;;15.99;85.13;100006.44;2303384;67;24335;-73
2021/08/24 00:18:36;;;;;;;2.78;2.55;;;;;;;15.95;85.21;100002.13;2303434;69;20182;-73
2021/08/24 00:21:40;;;;;;;3.24;2.66;;;;;;;15.92;85.27;99999.56;2303446;69;20192;-74
2021/08/24 00:24:43;;;;;;;3.56;3.28;;;;;;;15.92;85.47;99999.56;2299791;69;20145;-73
2021/08/24 00:27:45;;;;;;;3.15;2.95;;;;;;;15.93;85.34;100001.28;2304981;69;20702;-74
2021/08/24 00:30:48;;;;;;;3.69;3.39;;;;;;;15.96;85.07;100005.59;2303026;66;21433;-73
2021/08/24 00:33:51;;;;;;;3.54;3.24;;;;;;;15.95;84.84;100007.34;2304656;69;20282;-73
2021/08/24 00:36:54;;;;;;;7.82;4.36;;;;;;;15.96;84.83;100008.22;2304879;69;20174;-73
2021/08/24 00:39:56;;;;;;;3.64;3.34;;;;;;;15.96;84.56;100003.00;2303869;69;20166;-73
2021/08/24 00:42:59;;;;;;;3.29;3.06;;;;;;;15.96;84.30;99996.00;2305022;69;20275;-74
2021/08/24 00:46:15;;;;;;;3.44;3.14;;;;;;;15.95;84.21;99996.03;2304055;67;20183;-74
2021/08/24 00:49:23;;;;;;;3.41;3.11;;;;;;;15.96;84.10;100003.00;2304534;69;21096;-74
2021/08/24 00:52:26;;;;;;;;;;;;;;;15.93;83.96;99997.81;2304925;69;20206;-74
2021/08/24 00:55:31;;;;;;;2.89;2.69;;;;;;;15.93;83.90;99995.19;2305946;69;20163;-74
2021/08/24 00:58:35;;;;;;;3.08;2.88;;;;;;;15.89;83.85;99996.13;2304152;69;20273;-74
2021/08/24 01:01:37;;;;;;;3.60;3.29;;;;;;;15.86;83.95;100001.44;2304411;66;21015;-75
2021/08/24 01:04:40;;;;;;;2.91;2.71;;;;;;;15.82;83.83;100003.25;2304839;69;20232;-74
2021/08/24 01:07:54;;;;;;;2.91;2.71;;;;;;;15.77;83.88;100006.78;2304709;69;20145;-74
2021/08/24 01:11:19;;;;;;;3.29;2.96;;;;;;;15.70;84.09;100011.28;2304770;69;20222;-74
2021/08/24 01:14:55;;;;;;;3.41;3.00;;;;;;;15.59;84.39;100006.19;2304396;69;20202;-74
2021/08/24 01:18:11;;;;;;;3.83;2.63;;;;;;;15.47;84.84;100005.50;2304540;66;20320;-74
2021/08/24 01:21:41;;;;;;;4.93;3.03;;;;;;;15.37;85.20;99999.50;2303574;69;20137;-74
2021/08/24 01:25:02;;;;;;;2.71;2.35;;;;;;;15.29;85.21;100006.59;2305163;69;20181;-74
2021/08/24 01:28:32;;;;;;;3.75;2.51;;;;;;;15.17;85.33;99998.91;2305335;69;20175;-74
2021/08/24 01:32:08;;;;;;;5.15;2.51;;;;;;;15.02;85.56;99989.50;2303314;69;20149;-73
2021/08/24 01:35:46;;;;;;;2.76;2.47;;;;;;;14.96;85.97;99989.59;2300802;69;20498;-74
2021/08/24 01:38:58;;;;;;;2.94;2.52;;;;;;;14.85;86.35;99984.50;2304800;69;20216;-74
2021/08/24 01:42:14;;;;;;;3.46;2.84;;;;;;;14.81;86.63;99988.03;2304124;69;20522;-73
2021/08/24 01:45:23;;;;;;;3.99;2.38;;;;;;;14.74;86.94;99996.84;2302771;69;20384;-73
2021/08/24 01:48:36;;;;;;;2.81;2.60;;;;;;;14.69;86.96;99990.78;2304691;69;20171;-74
2021/08/24 01:51:46;;;;;;;7.11;2.79;;;;;;;14.64;86.81;99988.22;2303253;69;20656;-73
2021/08/24 01:54:59;;;;;;;3.42;2.69;;;;;;;14.57;87.12;99991.81;2304141;69;20744;-73
2021/08/24 01:58:10;;;;;;;5.38;2.28;;;;;;;14.54;87.35;99994.44;2302915;69;20861;-73
2021/08/24 02:01:16;;;;;;;2.88;2.06;;;;;;;14.48;87.52;99997.97;2304538;67;23391;-72
2021/08/24 02:04:27;;;;;;;2.58;2.38;;;;;;;14.43;87.46;100005.00;2306353;69;21024;-73
2021/08/24 02:07:32;;;;;;;3.69;2.69;;;;;;;14.34;87.39;99991.13;2307076;69;20611;-73
2021/08/24 02:10:35;;;;;;;4.68;2.39;;;;;;;14.32;87.45;99990.28;2306428;69;20823;-73
2021/08/24 02:13:45;;;;;;;2.74;2.54;;;;;;;14.29;87.44;99983.34;2306444;69;20160;-72
2021/08/24 02:16:50;;;;;;;2.40;2.28;;;;;;;14.25;87.58;99988.63;2305445;66;20343;-74
2021/08/24 02:19:58;;;;;;;2.83;2.55;;;;;;;14.19;87.84;99998.25;2306024;69;20211;-74
2021/08/24 02:23:09;;;;;;;2.50;2.30;;;;;;;14.14;87.74;99993.94;2305983;69;20280;-74
2021/08/24 02:26:14;;;;;;;2.85;2.40;;;;;;;14.03;87.51;99993.19;2310152;69;20148;-73
2021/08/24 02:29:17;;;;;;;3.03;2.39;;;;;;;14.00;87.66;99991.44;2305830;69;20165;-73
2021/08/24 02:32:25;;;;;;;4.26;2.74;;;;;;;13.96;87.50;99988.88;2306163;69;20824;-74
2021/08/24 02:35:35;;;;;;;3.62;2.44;;;;;;;13.89;87.75;99988.94;2306502;69;20206;-73
2021/08/24 02:38:42;;;;;;;2.33;2.13;;;;;;;13.88;88.01;99994.19;2306906;69;20286;-72
2021/08/24 02:42:08;;;;;;;4.65;1.74;;;;;;;13.79;88.41;99989.00;2306774;69;20175;-73
2021/08/24 02:45:22;;;;;;;2.28;2.13;;;;;;;13.72;88.41;99996.03;2305817;69;20214;-73
2021/08/24 02:48:26;;;;;;;2.49;2.00;;;;;;;13.68;88.55;99991.72;2299298;69;20178;-73
2021/08/24 02:51:29;;;;;;;4.39;2.17;;;;;;;13.65;88.36;99991.75;2299588;69;20153;-73
2021/08/24 02:54:35;;;;;;;3.14;2.50;;;;;;;13.65;88.39;99988.28;2300884;69;20178;-72
2021/08/24 02:57:38;;;;;;;3.35;2.13;;;;;;;13.60;88.16;99994.38;2299070;69;20300;-72
2021/08/24 03:00:40;;;;;;;4.22;2.50;;;;;;;13.55;88.06;100000.50;2298729;66;20183;-73
2021/08/24 03:03:43;;;;;;;1.98;1.88;;;;;;;13.55;87.96;99998.75;2305969;69;20198;-73
2021/08/24 03:06:48;;;;;;;2.41;2.21;;;;;;;13.55;87.99;100009.19;2305447;69;20244;-72
2021/08/24 03:09:52;;;;;;;2.41;1.80;;;;;;;13.53;87.86;100002.25;2305729;69;20173;-73
2021/08/24 03:13:33;;;;;;;4.38;2.42;;;;;;;13.46;87.63;100001.41;2304395;69;20169;-73
2021/08/24 03:16:42;;;;;;;4.89;2.00;;;;;;;13.42;87.78;99997.09;2304418;67;21676;-72
2021/08/24 03:19:48;;;;;;;3.15;2.11;;;;;;;13.40;87.61;100005.81;2304024;69;20202;-73
2021/08/24 03:22:52;;;;;;;1.95;1.85;;;;;;;13.35;87.69;100005.00;2304394;69;20194;-72
2021/08/24 03:25:55;;;;;;;2.33;2.05;;;;;;;13.32;87.86;100012.84;2303778;69;20198;-72
2021/08/24 03:28:58;;;;;;;2.72;1.77;;;;;;;13.29;88.01;100005.91;2305451;69;20161;-72
2021/08/24 03:32:04;;;;;;;1.59;1.49;;;;;;;13.27;88.06;100003.28;2303720;67;20480;-72
2021/08/24 03:35:08;;;;;;;2.31;1.77;;;;;;;13.26;87.87;100000.66;2304045;69;20133;-72
2021/08/24 03:38:11;;;;;;;2.35;1.90;;;;;;;13.31;87.88;100009.34;2305301;69;20218;-72
2021/08/24 03:41:14;;;;;;;1.86;1.65;;;;;;;13.35;87.93;100007.59;2305323;69;20238;-72
2021/08/24 03:44:16;;;;;;;1.69;1.54;;;;;;;13.35;87.83;100016.28;2304985;69;20195;-73
2021/08/24 03:47:19;;;;;;;2.61;1.67;;;;;;;13.35;87.62;100016.28;2303214;66;50993;-73
2021/08/24 03:50:22;;;;;;;1.99;1.89;;;;;;;13.36;87.53;100019.75;2304034;69;20933;-73
2021/08/24 03:53:25;;;;;;;1.80;1.60;;;;;;;13.35;87.37;100018.03;2305308;69;20153;-73
2021/08/24 03:56:27;;;;;;;3.89;2.21;;;;;;;13.35;87.35;100016.28;2304529;69;20145;-72
2021/08/24 03:59:30;;;;;;;1.76;1.55;;;;;;;13.30;87.20;100024.16;2303382;69;20169;-73
2021/08/24 04:02:33;;;;;;;1.77;1.64;;;;;;;13.24;87.32;100031.09;2303436;67;21530;-73
2021/08/24 04:05:36;;;;;;;1.79;1.60;;;;;;;13.17;87.30;100032.84;2303694;69;20614;-73
2021/08/24 04:08:38;;;;;;;4.18;1.77;;;;;;;13.12;87.32;100037.25;2304411;69;20186;-72
2021/08/24 04:11:41;;;;;;;2.31;1.55;;;;;;;13.05;87.54;100038.13;2304764;69;20466;-73
2021/08/24 04:14:44;;;;;;;4.90;2.00;;;;;;;12.99;87.85;100039.03;2304361;69;20170;-73
2021/08/24 04:17:47;;;;;;;3.46;1.69;;;;;;;12.96;88.09;100036.44;2303937;67;20161;-72
2021/08/24 04:20:50;;;;;;;4.14;1.71;;;;;;;12.95;88.45;100046.88;2303900;69;20306;-72
2021/08/24 04:23:53;;;;;;;2.60;1.76;;;;;;;12.93;88.67;100044.25;2304990;69;20153;-72
2021/08/24 04:26:55;;;;;;;1.94;1.84;;;;;;;12.90;88.52;100046.84;2304751;69;20152;-72
2021/08/24 04:29:58;;;;;;;3.89;1.66;;;;;;;12.85;88.53;100048.63;2304373;69;20178;-72
2021/08/24 04:33:00;;;;;;;7.85;1.85;;;;;;;12.80;88.67;100046.91;2302821;67;20699;-72
2021/08/24 04:36:05;;;;;;;3.55;1.74;;;;;;;12.81;88.69;100046.91;2303560;69;20194;-73
2021/08/24 04:39:09;;;;;;;2.59;1.66;;;;;;;12.77;88.72;100047.78;2305216;69;20584;-72
2021/08/24 04:42:12;;;;;;;2.16;1.71;;;;;;;12.71;88.98;100053.84;2302934;69;20232;-71
2021/08/24 04:45:15;;;;;;;3.92;1.91;;;;;;;12.71;89.01;100056.47;2303197;69;20145;-72
2021/08/24 04:48:18;;;;;;;1.46;1.36;;;;;;;12.71;88.71;100055.59;2304531;67;22093;-72
2021/08/24 04:51:21;;;;;;;1.96;1.86;;;;;;;12.70;88.66;100056.47;2303397;69;20492;-72
2021/08/24 04:54:24;;;;;;;2.74;1.74;;;;;;;12.68;88.70;100060.81;2303866;69;20168;-72
2021/08/24 04:57:26;;;;;;;2.63;1.77;;;;;;;12.67;88.76;100059.09;2304467;69;20183;-72
2021/08/24 05:00:30;;;;;;;3.60;2.14;;;;;;;12.66;88.92;100059.97;2303069;66;20625;-72
2021/08/24 05:03:33;;;;;;;1.81;1.41;;;;;;;12.59;88.94;100061.72;2303613;69;20279;-72
2021/08/24 05:06:36;;;;;;;1.83;1.52;;;;;;;12.63;89.18;100067.78;2304220;69;20174;-73
2021/08/24 05:09:38;;;;;;;1.90;1.73;;;;;;;12.58;89.32;100073.03;2304171;69;20233;-72
2021/08/24 05:12:41;;;;;;;3.20;1.39;;;;;;;12.61;89.46;100069.53;2303798;69;20194;-72
2021/08/24 05:15:44;;;;;;;2.76;1.55;;;;;;;12.66;89.63;100078.19;2303180;66;27417;-75
2021/08/24 05:18:46;;;;;;;2.85;2.14;;;;;;;12.70;89.53;100083.41;2301348;69;20189;-72
2021/08/24 05:21:49;;;;;;;2.75;1.80;;;;;;;12.74;89.22;100084.25;2302755;69;20157;-72
2021/08/24 05:24:51;;;;;;;2.33;1.76;;;;;;;12.67;89.36;100095.56;2301955;69;20240;-72
2021/08/24 05:27:55;;;;;;;3.91;2.08;;;;;;;12.73;89.53;100084.25;2302266;69;20567;-72
2021/08/24 05:30:57;;;;;;;2.00;1.90;;;;;;;12.76;89.72;100092.97;2301576;66;22421;-72
2021/08/24 05:34:00;;;;;;;4.47;1.70;;;;;;;12.81;89.64;100096.41;2301845;69;20160;-72
2021/08/24 05:37:03;;;;;;;2.19;1.80;;;;;;;12.88;89.76;100098.13;2302004;69;20269;-72
2021/08/24 05:40:09;;;;;;;4.34;1.69;;;;;;;13.00;89.61;100099.84;2302423;69;20161;-73
2021/08/24 05:43:11;;;;;;;1.90;1.44;;;;;;;13.11;89.52;100100.69;2304825;69;20656;-72
2021/08/24 05:46:15;;;;;;;3.79;1.92;;;;;;;13.21;89.42;100094.59;2302402;66;25188;-72
2021/08/24 05:49:18;;;;;;;2.00;1.80;;;;;;;13.39;89.27;100096.25;2305119;69;20177;-71
2021/08/24 05:52:21;;;;;;;2.45;1.55;;;;;;;13.55;88.84;100097.91;2303652;69;20255;-71
2021/08/24 05:55:24;;;;;;;1.36;1.26;;;;;;;13.81;87.87;100102.09;2303849;69;20523;-71
2021/08/24 05:58:29;;;;;;;1.58;1.10;;;;;;;14.16;86.67;100096.66;2304061;69;20148;-71
2021/08/24 06:01:32;;;;;;;1.45;1.35;;;;;;;14.58;83.90;100099.81;2303141;66;21186;-73
2021/08/24 06:04:35;;;;;;;1.59;1.21;;;;;;;15.04;81.35;100103.69;2305245;69;20902;-71
2021/08/24 06:07:38;;;;;;;2.01;1.38;;;;;;;15.43;79.28;100110.19;2304663;69;20582;-72
2021/08/24 06:10:41;;;;;;;2.41;1.44;;;;;;;15.77;77.70;100106.28;2305078;69;20137;-72
2021/08/24 06:13:43;;;;;;;6.20;1.76;;;;;;;16.07;76.36;100095.38;2305602;69;20222;-72
2021/08/24 06:16:57;;;;;;;2.61;1.49;;;;;;;16.34;74.98;100104.56;2302374;66;58218;-72
2021/08/24 06:20:00;;;;;;;2.60;1.30;;;;;;;16.59;73.88;100103.25;2303754;69;20239;-72
2021/08/24 06:23:03;;;;;;;2.59;1.20;;;;;;;16.88;71.99;100108.00;2303914;69;20173;-72
2021/08/24 06:26:06;;;;;;;4.79;1.39;;;;;;;17.13;70.67;100111.03;2303530;69;20588;-72
2021/08/24 06:29:09;;;;;;;3.05;1.50;;;;;;;17.42;69.44;100120.94;2304232;69;20627;-72
2021/08/24 06:32:28;;;;;;;1.54;1.08;;;;;;;17.74;68.47;100120.28;2302721;67;22191;-73
2021/08/24 06:35:30;;;;;;;3.46;0.99;;;;;;;17.96;66.87;100118.06;2304737;69;20222;-72
2021/08/24 06:38:34;;;;;;;2.24;1.16;;;;;;;18.11;66.44;100117.69;2304801;69;20207;-72
2021/08/24 06:41:37;;;;;;;3.63;1.20;;;;;;;18.31;65.94;100119.84;2303982;69;20586;-73
2021/08/24 06:44:40;;;;;;;1.49;0.95;;;;;;;18.40;64.95;100114.34;2305006;69;20255;-72
2021/08/24 06:47:42;;;;;;;3.38;1.27;;;;;;;18.53;64.13;100107.03;2303319;66;20534;-73
2021/08/24 06:50:45;;;;;;;1.96;0.94;;;;;;;18.63;63.33;100113.81;2305540;69;20182;-72
2021/08/24 06:53:48;;;;;;;1.52;1.00;;;;;;;18.77;63.62;100118.72;2304662;69;20504;-72
2021/08/24 06:56:51;;;;;;;3.89;1.33;;;;;;;18.88;62.57;100116.69;2304159;69;20234;-73
2021/08/24 06:59:53;;;;;;;1.88;0.95;;;;;;;19.00;63.23;100111.06;2305083;69;20522;-73
2021/08/24 07:02:56;;;;;;;1.61;0.74;;;;;;;19.17;62.26;100115.88;2304458;66;22280;-73
2021/08/24 07:05:58;;;;;;;0.80;0.75;;;;;;;19.29;61.22;100112.91;2304636;69;20175;-74
2021/08/24 07:09:01;;;;;;;2.58;0.80;;;;;;;19.45;60.37;100105.41;2304667;69;20175;-73
2021/08/24 07:12:04;;;;;;;1.11;0.90;;;;;;;19.59;59.06;100105.91;2303401;69;20288;-73
2021/08/24 07:15:08;;;;;;;1.14;0.89;;;;;;;19.70;57.74;100108.22;2302350;69;20145;-73
2021/08/24 07:18:11;;;;;;;1.90;1.44;;;;;;;19.80;57.01;100106.16;2302353;67;22713;-73
2021/08/24 07:21:16;;;;;;;3.11;1.58;;;;;;;19.87;56.91;100102.41;2308380;69;20145;-72
2021/08/24 07:24:19;;;;;;;3.66;1.14;;;;;;;20.03;56.53;100108.09;2299641;69;20160;-73
2021/08/24 07:27:22;;;;;;;1.56;1.08;;;;;;;20.13;55.31;100107.75;2305049;69;20165;-73
2021/08/24 07:30:24;;;;;;;3.29;1.10;;;;;;;20.27;54.45;100099.38;2304861;66;21088;-74
2021/08/24 07:33:27;;;;;;;6.39;1.26;;;;;;;20.46;54.37;100102.28;2305442;69;20173;-76
2021/08/24 07:36:30;;;;;;;3.64;0.98;;;;;;;20.64;52.91;100104.31;2308796;69;20486;-76
2021/08/24 07:39:32;;;;;;;3.03;0.86;;;;;;;20.79;52.35;100097.66;2307112;69;20196;-74
2021/08/24 07:42:36;;;;;;;5.75;1.04;;;;;;;20.90;51.59;100098.16;2304814;69;20863;-74
2021/08/24 07:45:39;;;;;;;4.04;1.13;;;;;;;21.00;51.10;100088.97;2302690;66;21392;-73
2021/08/24 07:48:42;;;;;;;19.40;11.26;;;;;;;21.16;51.69;100086.63;2306797;69;20195;-74
2021/08/24 07:51:44;;;;;;;19.74;10.43;;;;;;;21.29;50.07;100085.31;2299819;69;21021;-73
2021/08/24 07:54:47;;;;;;;11.91;7.05;;;;;;;21.34;48.63;100083.34;2305801;69;20149;-75
2021/08/24 07:57:49;;;;;;;8.71;3.13;;;;;;;21.41;48.75;100089.28;2304575;69;20178;-74
2021/08/24 08:00:52;;;;;;;9.14;3.20;;;;;;;21.50;48.29;100096.84;2303348;66;21632;-74
2021/08/24 08:03:55;;;;;;;8.25;3.17;;;;;;;21.54;48.50;100095.81;2306041;69;20161;-74
2021/08/24 08:06:58;;;;;;;7.34;3.96;;;;;;;21.74;48.64;100095.06;2305489;69;20153;-75
2021/08/24 08:10:00;;;;;;;3.96;2.25;;;;;;;21.98;48.72;100095.88;2305002;69;20157;-74
2021/08/24 08:13:05;;;;;;;2.51;1.20;;;;;;;22.09;46.76;100088.41;2305434;69;20153;-74
2021/08/24 08:16:07;;;;;;;3.05;1.64;;;;;;;22.14;46.29;100093.50;2304396;69;20695;-73
2021/08/24 08:19:11;;;;;;;9.31;1.54;;;;;;;22.15;45.84;100097.88;2304277;69;20145;-73
2021/08/24 08:22:14;;;;;;;3.25;1.48;;;;;;;22.18;45.42;100095.09;2305009;69;20507;-74
2021/08/24 08:25:17;;;;;;;2.24;0.80;;;;;;;22.29;44.57;100100.81;2305570;69;20823;-76
2021/08/24 08:28:20;;;;;;;2.58;0.85;;;;;;;22.31;44.33;100093.69;2303229;69;20175;-74
2021/08/24 08:31:25;;;;;;;1.16;0.75;;;;;;;22.32;44.14;100095.41;2304001;67;20193;-73
2021/08/24 08:34:27;;;;;;;1.75;0.76;;;;;;;22.35;44.05;100092.63;2304094;69;20156;-74
2021/08/24 08:37:30;;;;;;;3.36;0.70;;;;;;;22.43;44.86;100092.28;2304586;69;20215;-74
2021/08/24 08:40:57;;;;;;;3.29;0.98;;;;;;;22.50;45.02;100089.34;2303995;69;20715;-75
2021/08/24 08:44:29;;;;;;;3.24;0.89;;;;;;;22.73;44.47;100093.66;2303575;69;20706;-72
2021/08/24 08:47:56;;;;;;;2.79;1.00;;;;;;;22.80;43.19;100088.94;2303075;67;20901;-72
2021/08/24 08:51:29;;;;;;;2.51;1.20;;;;;;;22.94;43.53;100089.22;2303136;69;20145;-72
2021/08/24 08:54:50;;;;;;;5.78;0.91;;;;;;;23.04;43.10;100079.09;2304256;69;20149;-71
2021/08/24 08:58:11;;;;;;;5.05;0.98;;;;;;;23.08;41.52;100081.53;2303153;69;20206;-73
2021/08/24 09:01:24;;;;;;;73.05;38.70;;;;;;;22.98;41.02;100089.94;2302422;66;22863;-72
2021/08/24 09:04:37;;;;;;;18.89;9.74;;;;;;;22.89;41.63;100080.63;2297831;69;20193;-72
2021/08/24 09:07:49;;;;;;;5.43;2.38;;;;;;;22.90;41.74;100074.41;2304266;69;20189;-73
2021/08/24 09:10:56;;;;;;;6.01;1.30;;;;;;;23.08;41.36;100084.19;2303458;69;20149;-72
2021/08/24 09:14:08;;;;;;;6.14;2.30;;;;;;;23.03;41.07;100069.44;2304216;69;20789;-72
2021/08/24 09:17:16;;;;;;;4.44;1.40;;;;;;;23.01;41.67;100077.44;2303766;67;20206;-72
2021/08/24 09:20:32;;;;;;;2.11;0.90;;;;;;;23.11;41.30;100080.53;2304049;69;20175;-72
2021/08/24 09:23:35;;;;;;;1.56;0.75;;;;;;;23.23;40.96;100079.13;2305068;69;20157;-72
2021/08/24 09:26:50;;;;;;;3.53;0.77;;;;;;;23.10;40.40;100082.31;2304699;69;20862;-73
2021/08/24 09:29:53;;;;;;;1.77;0.70;;;;;;;23.05;39.97;100072.88;2305092;69;20242;-72
2021/08/24 09:33:03;;;;;;;1.51;0.71;;;;;;;23.09;39.78;100074.44;2303560;66;21064;-73
2021/08/24 09:36:06;;;;;;;1.31;0.65;;;;;;;23.14;39.53;100070.66;2303587;69;20170;-72
2021/08/24 09:39:09;;;;;;;1.30;0.80;;;;;;;23.10;38.78;100070.88;2304957;69;20269;-72
2021/08/24 09:42:12;;;;;;;2.85;0.90;;;;;;;23.01;37.88;100069.50;2303747;69;20145;-73
2021/08/24 09:45:20;;;;;;;3.17;0.80;;;;;;;23.07;39.06;100069.22;2301516;69;20148;-72
2021/08/24 09:48:23;;;;;;;2.72;0.93;;;;;;;23.15;38.27;100069.72;2302936;67;21150;-72
2021/08/24 09:51:36;;;;;;;3.30;0.60;;;;;;;23.21;37.94;100061.50;2302783;69;20579;-73
2021/08/24 09:54:52;;;;;;;1.15;0.91;;;;;;;23.19;37.08;100057.22;2303966;69;20206;-72
2021/08/24 09:58:04;;;;;;;1.69;1.00;;;;;;;23.16;37.19;100052.94;2304375;69;20141;-72
2021/08/24 10:01:11;;;;;;;4.55;1.79;;;;;;;23.18;37.70;100055.50;2303191;67;20262;-72
2021/08/24 10:04:15;;;;;;;1.92;1.00;;;;;;;23.18;37.72;100053.72;2303967;69;20251;-73
2021/08/24 10:07:34;;;;;;;1.61;1.21;;;;;;;23.35;37.74;100060.03;2304096;69;20174;-71
2021/08/24 10:10:38;;;;;;;1.63;0.80;;;;;;;23.38;38.25;100054.59;2303127;69;20245;-72
2021/08/24 10:13:43;;;;;;;0.90;0.70;;;;;;;23.53;39.27;100053.88;2310565;69;20349;-72
2021/08/24 10:16:48;;;;;;;1.09;0.60;;;;;;;23.61;39.18;100056.19;2303322;67;43663;-74
2021/08/24 10:19:51;;;;;;;1.86;1.30;;;;;;;23.64;39.02;100056.91;2305205;69;20170;-72
2021/08/24 10:22:54;;;;;;;3.17;2.42;;;;;;;23.61;39.58;100053.53;2304336;69;20499;-72
2021/08/24 10:26:00;;;;;;;8.36;2.35;;;;;;;23.75;39.37;100037.81;2303807;69;20269;-71
2021/08/24 10:29:08;;;;;;;1.71;1.00;;;;;;;23.86;38.63;100048.75;2305579;69;20176;-74
2021/08/24 10:32:26;;;;;;;1.22;0.77;;;;;;;23.87;38.54;100045.16;2303087;66;20145;-72
2021/08/24 10:35:37;;;;;;;3.90;0.77;;;;;;;23.94;38.94;100041.31;2301869;69;20204;-72
2021/08/24 10:39:05;;;;;;;14.50;1.20;;;;;;;23.96;37.62;100041.22;2305254;69;20929;-75
2021/08/24 10:42:20;;;;;;;3.27;1.40;;;;;;;23.90;36.86;100041.53;2305274;69;20234;-76
2021/08/24 10:45:28;;;;;;;7.09;1.36;;;;;;;24.00;38.37;100043.66;2304099;69;20701;-73
2021/08/24 10:48:33;;;;;;;1.26;1.05;;;;;;;24.00;38.26;100041.00;2303690;69;20153;-72
2021/08/24 10:51:45;;;;;;;1.11;0.80;;;;;;;24.11;37.19;100037.81;2303239;69;20898;-72
2021/08/24 10:54:53;;;;;;;4.19;0.86;;;;;;;24.20;37.11;100033.84;2304098;69;20165;-72
2021/08/24 10:58:06;;;;;;;2.63;0.70;;;;;;;24.30;38.01;100037.78;2305077;69;20327;-71
2021/08/24 11:01:48;;;;;;;2.74;0.90;;;;;;;24.37;37.28;100034.72;2303724;66;22415;-72
2021/08/24 11:05:06;;;;;;;0.65;0.64;;;;;;;24.27;37.00;100025.50;2304207;69;20161;-73
2021/08/24 11:08:17;;;;;;;3.39;1.11;;;;;;;24.35;37.76;100014.50;2304069;69;20218;-72
2021/08/24 11:11:53;;;;;;;2.41;1.30;;;;;;;24.37;36.45;100025.91;2304220;69;20261;-72
2021/08/24 11:15:20;;;;;;;0.99;0.80;;;;;;;24.42;35.55;100026.56;2296132;69;20220;-72
2021/08/24 11:18:56;;;;;;;0.98;0.80;;;;;;;24.35;35.80;100018.03;2303564;69;21754;-72
2021/08/24 11:22:16;;;;;;;1.17;1.00;;;;;;;24.36;35.38;100014.44;2303495;69;20157;-72
2021/08/24 11:25:29;;;;;;;2.50;0.91;;;;;;;24.38;35.53;100009.03;2304913;69;20187;-73
2021/08/24 11:28:45;;;;;;;2.31;0.71;;;;;;;24.41;35.26;100017.72;2304634;69;20153;-72
2021/08/24 11:32:09;;;;;;;1.88;0.89;;;;;;;24.54;36.16;100014.44;2305737;67;20254;-72
2021/08/24 11:35:23;;;;;;;2.42;0.69;;;;;;;24.63;35.85;100011.31;2304496;69;20188;-75
2021/08/24 11:38:30;;;;;;;2.47;1.00;;;;;;;24.71;36.00;100019.72;2305302;69;20182;-74
2021/08/24 11:41:37;;;;;;;1.36;1.06;;;;;;;24.81;35.32;99998.84;2303166;69;20153;-72
2021/08/24 11:44:51;;;;;;;0.82;0.80;;;;;;;24.90;36.03;100001.88;2304598;69;20284;-72
2021/08/24 11:48:00;;;;;;;2.29;0.91;;;;;;;24.92;35.43;100012.41;2303614;67;21981;-74
2021/08/24 11:51:21;;;;;;;1.21;0.90;;;;;;;24.95;36.09;100020.22;2303366;69;20173;-69
2021/08/24 11:54:40;;;;;;;1.16;0.93;;;;;;;25.05;35.74;100012.66;2304676;69;20161;-68
2021/08/24 11:58:14;;;;;;;3.06;0.85;;;;;;;24.97;36.04;100010.38;2303849;69;20201;-69
2021/08/24 12:01:20;;;;;;;2.65;1.15;;;;;;;24.99;36.03;100012.03;2302435;67;31833;-69
2021/08/24 12:04:27;;;;;;;1.06;0.81;;;;;;;24.87;36.45;100006.50;2305101;69;21095;-68
2021/08/24 12:07:38;;;;;;;1.77;1.09;;;;;;;24.93;37.55;100009.66;2303727;69;20205;-70
2021/08/24 12:10:49;;;;;;;2.64;1.30;;;;;;;25.09;36.50;100008.88;2304183;69;20696;-70
2021/08/24 12:13:54;;;;;;;2.69;1.36;;;;;;;24.98;36.29;100004.97;2303697;69;20149;-70
2021/08/24 12:17:03;;;;;;;2.38;0.98;;;;;;;24.95;36.76;100004.25;2303642;67;21700;-70
2021/08/24 12:20:13;;;;;;;3.49;0.95;;;;;;;24.92;36.14;99994.66;2304351;69;20145;-70
2021/08/24 12:23:34;;;;;;;1.75;0.90;;;;;;;25.03;37.78;99995.94;2305170;69;20511;-72
2021/08/24 12:26:36;;;;;;;2.86;1.02;;;;;;;25.21;37.68;99994.94;2304804;69;20178;-68
2021/08/24 12:29:39;;;;;;;0.85;0.84;;;;;;;25.25;36.16;99999.97;2303879;69;20635;-69
2021/08/24 12:32:48;;;;;;;1.61;0.88;;;;;;;25.34;36.42;100005.75;2303358;67;21617;-70
2021/08/24 12:35:51;;;;;;;3.30;1.10;;;;;;;25.38;36.14;100002.81;2303330;69;20186;-69
2021/08/24 12:39:00;;;;;;;2.72;0.94;;;;;;;25.24;34.88;100000.94;2303557;69;20172;-69
2021/08/24 12:42:30;;;;;;;2.26;0.96;;;;;;;25.11;34.98;99993.69;2304291;69;20916;-69
2021/08/24 12:45:33;;;;;;;0.86;0.80;;;;;;;25.05;35.75;99994.91;2304566;67;21364;-68
2021/08/24 12:48:36;;;;;;;1.34;1.01;;;;;;;25.11;35.77;100002.53;2304968;69;20145;-69
2021/08/24 12:51:53;;;;;;;2.90;1.36;;;;;;;25.11;35.56;99997.22;2304450;69;20232;-68
2021/08/24 12:55:11;;;;;;;1.35;1.10;;;;;;;25.06;35.83;100001.94;2304250;69;20174;-68
2021/08/24 12:58:24;;;;;;;6.75;1.79;;;;;;;25.11;35.47;100010.50;2304000;69;20198;-69
2021/08/24 13:01:28;;;;;;;2.88;1.25;;;;;;;25.08;35.43;100012.47;2304299;67;20686;-69
2021/08/24 13:04:34;;;;;;;2.90;1.44;;;;;;;25.02;36.30;100003.03;2302634;69;20291;-69
2021/08/24 13:07:41;;;;;;;2.79;1.11;;;;;;;25.03;35.98;100007.41;2302432;69;20153;-69
2021/08/24 13:10:46;;;;;;;2.15;1.21;;;;;;;25.04;36.03;100011.78;2304492;69;20162;-70
2021/08/24 13:13:54;;;;;;;3.20;1.21;;;;;;;25.08;36.37;100010.69;2304696;69;20206;-70
2021/08/24 13:16:57;;;;;;;1.39;0.79;;;;;;;25.08;36.37;100010.69;2304293;67;23538;-70
2021/08/24 13:20:02;;;;;;;5.05;1.30;;;;;;;25.06;36.50;100015.22;2299588;69;20760;-70
2021/08/24 13:23:08;;;;;;;1.35;0.80;;;;;;;25.00;36.76;100016.41;2305478;69;20656;-72
2021/08/24 13:26:21;;;;;;;2.40;0.90;;;;;;;24.99;37.23;100013.81;2304402;69;20578;-69
2021/08/24 13:29:27;;;;;;;3.26;1.41;;;;;;;25.04;37.73;100008.28;2305396;69;20420;-70
2021/08/24 13:32:38;;;;;;;2.88;1.24;;;;;;;24.97;38.15;100002.41;2303729;66;20871;-69
2021/08/24 13:35:43;;;;;;;3.08;0.90;;;;;;;25.06;38.96;100001.06;2303905;69;20692;-70
2021/08/24 13:38:51;;;;;;;2.08;1.00;;;;;;;25.22;39.01;99999.28;2304165;69;20145;-70
2021/08/24 13:42:03;;;;;;;1.86;1.00;;;;;;;25.19;38.94;100003.00;2304538;69;20288;-71
2021/08/24 13:45:10;;;;;;;2.45;1.30;;;;;;;25.20;39.54;99999.38;2303915;69;20161;-70
2021/08/24 13:48:12;;;;;;;2.81;0.86;;;;;;;25.17;39.53;99994.25;2304108;66;26453;-72
2021/08/24 13:51:15;;;;;;;1.58;0.77;;;;;;;25.15;39.41;100001.44;2303831;69;20149;-71
2021/08/24 13:54:36;;;;;;;1.10;0.80;;;;;;;25.14;40.42;99994.41;2304936;69;20192;-71
2021/08/24 13:57:39;;;;;;;0.80;0.80;;;;;;;25.28;40.39;99998.94;2303445;69;20295;-70
2021/08/24 14:00:42;;;;;;;0.99;0.70;;;;;;;25.41;40.86;99975.22;2303781;67;20170;-70
2021/08/24 14:03:55;;;;;;;1.70;0.91;;;;;;;25.51;40.85;99985.25;2303870;69;20186;-70
2021/08/24 14:07:05;;;;;;;2.15;0.73;;;;;;;25.61;41.24;99997.06;2304699;69;20731;-70
2021/08/24 14:10:27;;;;;;;1.73;1.00;;;;;;;25.33;40.71;99999.56;2304923;69;20165;-70
2021/08/24 14:13:42;;;;;;;2.20;0.90;;;;;;;24.92;41.94;99988.50;2304603;69;20161;-70
2021/08/24 14:16:45;;;;;;;1.69;1.00;;;;;;;24.77;42.23;99990.16;2302545;67;20405;-74
2021/08/24 14:19:49;;;;;;;1.75;0.88;;;;;;;24.66;42.70;99996.06;2303481;69;20173;-70
2021/08/24 14:22:55;;;;;;;1.73;1.63;;;;;;;24.50;43.28;99994.28;2302525;69;20612;-71
2021/08/24 14:26:01;;;;;;;3.60;2.30;;;;;;;24.39;43.47;99994.84;2303458;69;20667;-71
2021/08/24 14:29:10;;;;;;;9.64;7.05;;;;;;;24.19;44.20;100001.13;2302670;69;20157;-72
2021/08/24 14:32:30;;;;;;;2.24;0.98;;;;;;;23.89;43.92;99992.94;2301508;67;20210;-71
2021/08/24 14:35:51;;;;;;;1.31;0.85;;;;;;;23.60;44.60;99986.38;2301680;69;20255;-70